Time;durP1;ratioP1;P1;durP2;ratioP2;P2;SDS_P1;SDS_P2;PMS_P1;PMS_P2;Temp;Humidity;BMP_temperature;BMP_pressure;BME280_temperature;BME280_humidity;BME280_pressure;Samples;Min_cycle;Max_cycle;Signal;HPM_P1;HPM_P2
2023/02/23 00:01:36;;;;;;;9.57;3.77;;;;;;;-10.93;49.43;99766.44;6082205;23;20018;-81
2023/02/23 00:05:08;;;;;;;8.68;3.90;;;;;;;-10.26;48.94;99869.47;6067998;23;20022;-81
2023/02/23 00:08:06;;;;;;;10.70;4.50;;;;;;;-10.84;49.14;99780.44;6099611;23;20102;-81
2023/02/23 00:16:52;;;;;;;9.73;3.63;;;;;;;-10.55;49.41;99879.88;6075702;23;20047;-81
2023/02/23 00:19:36;;;;;;;9.83;3.67;;;;;;;-11.30;49.00;99761.09;6074912;23;20357;-79
2023/02/23 00:22:05;;;;;;;14.50;4.23;;;;;;;-10.97;49.04;99826.41;6074979;23;20021;-80
2023/02/23 00:24:36;;;;;;;13.43;3.93;;;;;;;-11.22;49.02;99780.16;6074882;23;20023;-82
2023/02/23 00:27:08;;;;;;;9.63;3.83;;;;;;;-11.43;48.95;99751.72;6075848;23;20022;-81
2023/02/23 00:29:40;;;;;;;9.40;3.67;;;;;;;-11.18;48.91;99793.81;6097898;23;20026;-81
2023/02/23 00:32:12;;;;;;;8.33;3.70;;;;;;;-11.61;48.79;99750.28;6074255;23;20096;-80
2023/02/23 00:38:44;;;;;;;10.07;3.87;;;;;;;-10.69;49.45;99899.81;6073838;23;20014;-82
2023/02/23 00:41:17;;;;;;;11.77;3.90;;;;;;;-10.66;49.23;99900.06;6027218;23;20421;-80
2023/02/23 00:43:59;;;;;;;8.63;3.50;;;;;;;-10.86;49.44;99867.47;6057918;23;20484;-80
2023/02/23 00:46:32;;;;;;;7.47;3.90;;;;;;;-11.22;49.23;99815.34;6057545;23;20023;-81
2023/02/23 00:49:06;;;;;;;11.37;4.17;;;;;;;-10.88;49.67;99871.50;6074374;23;20023;-80
2023/02/23 00:51:40;;;;;;;9.17;3.97;;;;;;;-10.72;49.40;99907.16;6074128;23;20047;-81
2023/02/23 00:54:19;;;;;;;8.70;3.63;;;;;;;-10.75;49.01;99904.38;6061343;23;20026;-80
2023/02/23 00:56:48;;;;;;;8.70;4.30;;;;;;;-11.26;49.27;99835.97;6087100;23;20022;-82
2023/02/23 00:59:15;;;;;;;12.90;4.67;;;;;;;-10.91;50.34;99872.16;6053395;23;20023;-80
2023/02/23 01:01:47;;;;;;;9.63;4.03;;;;;;;-10.67;50.24;99902.47;6050371;23;20034;-80
2023/02/23 01:04:24;;;;;;;10.87;4.27;;;;;;;-10.85;49.51;99876.75;6075550;23;20033;-81
2023/02/23 01:07:05;;;;;;;15.57;4.83;;;;;;;-10.70;50.02;99912.28;6027136;23;20029;-80
2023/02/23 01:09:32;;;;;;;10.20;4.50;;;;;;;-10.75;50.23;99914.44;6075094;23;20026;-81
2023/02/23 01:12:06;;;;;;;12.53;4.77;;;;;;;-11.05;50.03;99866.03;6050133;23;20083;-80
2023/02/23 01:14:41;;;;;;;9.87;4.07;;;;;;;-10.85;49.60;99901.91;6049751;23;20105;-83
2023/02/23 01:17:36;;;;;;;10.13;4.10;;;;;;;-11.20;49.66;99835.53;6074264;23;20042;-81
2023/02/23 01:20:18;;;;;;;9.30;3.63;;;;;;;-10.93;49.87;99892.16;6076577;23;20027;-81
2023/02/23 01:22:56;;;;;;;10.60;4.68;;;;;;;-11.16;50.21;99851.75;6074917;23;20026;-81
2023/02/23 01:25:27;;;;;;;8.20;4.07;;;;;;;-11.17;49.90;99853.38;6097474;23;20022;-81
2023/02/23 01:28:08;;;;;;;9.63;4.30;;;;;;;-11.41;50.07;99802.97;6077882;23;20509;-82
2023/02/23 01:30:41;;;;;;;9.60;4.00;;;;;;;-11.29;50.09;99828.16;6056734;23;20029;-86
2023/02/23 01:33:33;;;;;;;9.90;3.80;;;;;;;-10.64;50.36;99927.84;6037300;23;20162;-79
2023/02/23 01:40:31;;;;;;;15.97;3.87;;;;;;;-11.68;50.02;99786.59;5967071;23;20018;-80
2023/02/23 01:48:42;;;;;;;11.33;4.53;;;;;;;-10.85;50.45;99932.97;5985967;24;20480;-79
2023/02/23 01:55:53;;;;;;;11.03;4.07;;;;;;;-11.25;50.29;99894.66;6016592;23;20114;-80
2023/02/23 01:59:12;;;;;;;10.33;3.73;;;;;;;-11.38;50.21;99893.66;6005442;23;20029;-79
2023/02/23 02:02:32;;;;;;;8.97;4.30;;;;;;;-11.13;49.53;99940.84;6041854;23;20019;-80
2023/02/23 02:27:56;;;;;;;11.27;4.03;;;;;;;-12.41;50.37;99771.69;5851363;24;20455;-79
2023/02/23 02:32:27;;;;;;;;;;;;;;;;;;;;;
2023/02/23 02:36:27;;;;;;;7.73;3.50;;;;;;;-11.46;51.14;99959.97;5774050;24;20031;-80
2023/02/23 02:39:33;;;;;;;9.63;3.97;;;;;;;-11.51;50.53;99958.75;5802206;24;20019;-80
2023/02/23 02:42:34;;;;;;;7.80;3.83;;;;;;;-11.42;50.71;99973.69;5917572;23;20023;-81
2023/02/23 02:45:22;;;;;;;11.73;4.50;;;;;;;-11.45;50.74;99970.94;6026451;23;20030;-80
2023/02/23 02:48:37;;;;;;;8.57;3.93;;;;;;;-11.47;50.86;99973.28;6050157;23;20030;-81
2023/02/23 02:51:24;;;;;;;8.85;3.97;;;;;;;-11.52;50.80;99975.44;6053943;23;20355;-81
2023/02/23 02:54:26;;;;;;;11.17;4.60;;;;;;;-11.67;50.36;99954.97;6076252;23;20022;-82
2023/02/23 02:56:56;;;;;;;11.90;4.13;;;;;;;-11.40;51.48;99980.59;6031079;23;20018;-79
2023/02/23 04:17:54;;;;;;;13.00;5.10;;;;;;;-12.32;52.10;99954.69;6104406;23;20547;-80
2023/02/23 04:20:25;;;;;;;10.87;4.73;;;;;;;-12.01;52.07;100001.53;6102356;23;20018;-81
2023/02/23 04:22:52;;;;;;;11.03;4.97;;;;;;;-11.92;52.23;100019.00;6101776;23;20448;-80
2023/02/23 04:25:25;;;;;;;17.27;5.23;;;;;;;-12.42;52.31;99942.13;6102300;23;20049;-81
2023/02/23 04:27:55;;;;;;;12.30;5.17;;;;;;;-12.79;51.51;99876.31;6079100;23;20025;-82
2023/02/23 04:30:27;;;;;;;14.37;4.50;;;;;;;-11.88;51.62;100021.00;6052522;23;20026;-81
2023/02/23 04:32:57;;;;;;;14.33;4.57;;;;;;;-11.88;52.15;100018.47;6098425;23;20014;-82
2023/02/23 04:35:26;;;;;;;14.90;5.20;;;;;;;-11.99;52.00;99995.91;6074988;23;20017;-81
2023/02/23 04:37:52;;;;;;;10.03;4.67;;;;;;;-11.94;51.91;100008.81;6101261;23;20018;-83
2023/02/23 04:40:18;;;;;;;11.77;5.33;;;;;;;-11.85;51.82;100023.75;6045123;23;20018;-81
2023/02/23 04:42:44;;;;;;;17.10;5.13;;;;;;;-11.94;52.12;100016.34;6046350;23;20014;-80
2023/02/23 04:45:11;;;;;;;11.77;4.77;;;;;;;-11.82;52.14;100006.44;6045409;23;20101;-82
2023/02/23 04:47:37;;;;;;;8.77;4.40;;;;;;;-11.66;52.31;99996.91;6070543;23;20436;-81
2023/02/23 04:50:06;;;;;;;12.30;4.50;;;;;;;-11.61;51.83;99989.78;6055734;23;20019;-84
2023/02/23 04:52:33;;;;;;;13.63;4.73;;;;;;;-11.79;51.65;99964.03;6050502;23;20021;-84
2023/02/23 04:55:00;;;;;;;12.03;4.87;;;;;;;-11.77;51.85;99972.56;6074670;23;20097;-89
2023/02/23 04:57:27;;;;;;;13.80;4.83;;;;;;;-11.13;51.89;100046.41;6106725;23;20022;-83
2023/02/23 04:59:53;;;;;;;10.30;4.63;;;;;;;-10.91;52.15;99993.69;6083652;23;20026;-84
2023/02/23 05:02:19;;;;;;;11.20;4.50;;;;;;;-10.18;52.02;100044.63;6104526;23;20090;-81
2023/02/23 05:04:45;;;;;;;13.20;4.67;;;;;;;-9.82;50.89;100029.72;6075600;23;20486;-83
2023/02/23 05:07:26;;;;;;;12.67;5.10;;;;;;;-9.96;51.07;99927.03;6096174;23;20105;-82
2023/02/23 05:10:12;;;;;;;11.20;4.53;;;;;;;-8.82;50.97;100036.19;6070412;23;20081;-83
2023/02/23 05:12:41;;;;;;;19.60;5.63;;;;;;;-8.35;50.54;100019.25;6094815;23;20407;-83
2023/02/23 05:15:09;;;;;;;13.20;5.47;;;;;;;-7.88;50.05;100009.03;6077720;23;20018;-83
2023/02/23 05:17:40;;;;;;;14.50;5.13;;;;;;;-7.27;49.30;100016.44;6102678;23;20025;-84
2023/02/23 05:20:07;;;;;;;10.38;4.82;;;;;;;-6.85;49.57;100016.59;6084994;23;20022;-83
2023/02/23 05:22:33;;;;;;;11.07;4.63;;;;;;;-6.41;48.58;100030.31;6080312;23;20034;-82
2023/02/23 05:25:25;;;;;;;13.77;4.65;;;;;;;-5.89;47.73;100044.44;6081351;23;20042;-85
2023/02/23 05:27:53;;;;;;;10.23;5.07;;;;;;;-5.73;48.15;99966.75;6102836;23;20073;-84
2023/02/23 05:30:22;;;;;;;14.10;6.18;;;;;;;-4.81;47.38;100011.78;6071053;23;20022;-83
2023/02/23 05:32:48;;;;;;;11.05;4.95;;;;;;;-4.31;46.84;99964.56;6080854;23;20422;-83
2023/02/23 05:35:22;;;;;;;12.48;5.13;;;;;;;-3.55;46.38;99987.94;6072204;23;20018;-82
2023/02/23 05:38:08;;;;;;;13.60;5.10;;;;;;;-2.47;45.13;100045.81;6098585;23;20021;-83
2023/02/23 05:45:15;;;;;;;12.82;5.53;;;;;;;-1.79;43.71;99900.97;6107196;23;20040;-81
2023/02/23 05:48:26;;;;;;;;;;;;;;;;;;;;;
2023/02/23 05:51:47;;;;;;;13.18;5.95;;;;;;;0.42;39.83;100033.03;6085362;23;20018;-85
2023/02/23 05:54:22;;;;;;;11.40;5.15;;;;;;;0.49;39.92;99931.69;6071442;23;20018;-83
2023/02/23 05:56:52;;;;;;;10.88;5.88;;;;;;;1.57;38.58;99959.91;6071863;23;20117;-82
2023/02/23 05:59:24;;;;;;;8.70;5.07;;;;;;;2.53;38.72;99998.56;6073071;23;20097;-84
2023/02/23 06:02:05;;;;;;;12.77;5.80;;;;;;;3.22;37.72;99998.59;6093787;23;20041;-84
2023/02/23 06:04:40;;;;;;;13.02;6.57;;;;;;;3.84;36.36;100002.56;6105619;23;20021;-81
2023/02/23 06:08:00;;;;;;;13.38;5.95;;;;;;;3.84;35.42;99936.50;6129904;23;20085;-84
2023/02/23 06:11:07;;;;;;;12.13;5.85;;;;;;;5.02;34.40;99961.84;6043852;23;20023;-85
2023/02/23 06:14:22;;;;;;;12.18;6.43;;;;;;;6.00;33.17;100018.38;6105166;23;20013;-85
2023/02/23 06:17:26;;;;;;;12.68;6.13;;;;;;;6.90;32.41;100019.41;6111475;23;20020;-84
2023/02/23 06:20:13;;;;;;;;;;;;;;;;;;;;;
2023/02/23 06:23:52;;;;;;;9.55;5.68;;;;;;;7.74;30.76;99939.75;6079996;23;20021;-85
2023/02/23 06:26:22;;;;;;;10.85;5.88;;;;;;;8.79;29.66;100023.97;6112401;23;20036;-81
2023/02/23 06:29:21;;;;;;;11.45;6.25;;;;;;;8.70;28.81;99968.63;6121078;23;20072;-82
2023/02/23 06:32:04;;;;;;;10.18;6.00;;;;;;;9.10;27.96;99991.13;6136603;23;20013;-83
2023/02/23 06:34:56;;;;;;;10.98;5.65;;;;;;;10.05;26.65;100035.16;6121593;23;20396;-80
2023/02/23 06:37:25;;;;;;;7.75;5.10;;;;;;;9.01;24.98;99972.97;6113827;23;20021;-84
2023/02/23 06:40:20;;;;;;;10.95;5.65;;;;;;;9.71;26.50;99976.31;6140098;23;20024;-83
2023/02/23 06:42:46;;;;;;;9.10;6.00;;;;;;;10.31;25.94;99948.38;6109256;23;20022;-83
2023/02/23 06:45:14;;;;;;;10.70;6.28;;;;;;;11.11;24.47;99968.69;6111473;23;20017;-83
2023/02/23 06:47:41;;;;;;;8.80;6.15;;;;;;;11.70;24.13;99986.38;6160341;23;20486;-84
2023/02/23 06:50:11;;;;;;;9.88;5.93;;;;;;;12.05;23.85;99997.31;6134535;23;20096;-85
2023/02/23 06:57:11;;;;;;;8.93;5.82;;;;;;;13.24;22.71;100034.81;6001273;23;20022;-85
2023/02/23 06:59:41;;;;;;;12.00;6.30;;;;;;;13.24;21.42;100013.91;6038443;23;20021;-87
2023/02/23 07:02:15;;;;;;;9.60;5.55;;;;;;;13.32;21.21;99955.44;6086004;23;20028;-87
2023/02/23 07:04:51;;;;;;;9.15;5.65;;;;;;;13.80;21.09;100004.28;6110852;23;20470;-88
2023/02/23 07:08:01;;;;;;;;;;;;;;;;;;;;;
2023/02/23 07:10:38;;;;;;;9.52;5.57;;;;;;;14.80;20.58;100035.38;6115503;23;20081;-85
2023/02/23 07:13:05;;;;;;;9.25;6.32;;;;;;;15.58;20.14;99981.09;6080164;23;20464;-83
2023/02/23 07:15:31;;;;;;;11.30;6.57;;;;;;;16.41;18.91;100030.44;6103199;23;20141;-84
2023/02/23 07:21:36;;;;;;;11.57;5.72;;;;;;;15.82;18.76;99954.19;6074497;23;20125;-85
2023/02/23 07:24:09;;;;;;;10.18;6.45;;;;;;;17.06;18.66;100046.88;6102344;23;20092;-86
2023/02/23 07:27:07;;;;;;;10.52;6.60;;;;;;;17.49;17.99;99946.44;6081729;23;20026;-87
2023/02/23 07:29:42;;;;;;;7.35;5.97;;;;;;;18.74;17.82;100022.59;6087696;23;20102;-83
2023/02/23 07:32:22;;;;;;;9.32;6.68;;;;;;;18.27;17.17;99955.88;6127223;23;20495;-83
2023/02/23 07:36:34;;;;;;;;;;;;;;;;;;;;;
2023/02/23 07:40:09;;;;;;;10.55;6.70;;;;;;;18.15;16.33;100057.25;6103443;23;20025;-83
2023/02/23 07:47:05;;;;;;;7.90;5.97;;;;;;;17.64;16.53;99977.44;6160146;23;20056;-86
2023/02/23 07:54:05;;;;;;;9.80;7.28;;;;;;;18.11;16.62;99997.72;6071294;23;20006;-82
2023/02/23 07:56:37;;;;;;;9.57;6.25;;;;;;;17.72;16.29;99993.84;6065619;23;20019;-83
2023/02/23 07:59:06;;;;;;;;;;;;;;;18.35;16.30;100067.06;6039590;23;19999;-83
2023/02/23 08:17:11;;;;;;;10.93;8.02;;;;;;;18.55;15.42;99985.53;6086640;23;20046;-84
2023/02/23 08:19:38;;;;;;;11.63;7.15;;;;;;;18.93;15.39;100018.28;6121187;23;20028;-83
2023/02/23 08:22:18;;;;;;;10.52;7.50;;;;;;;19.94;14.88;100064.31;6132088;23;20021;-85
2023/02/23 08:24:50;;;;;;;8.77;6.95;;;;;;;20.64;14.87;100010.13;6123549;23;20032;-83
2023/02/23 08:27:30;;;;;;;8.90;7.53;;;;;;;20.88;14.55;100000.16;6120495;23;20073;-82
2023/02/23 08:30:04;;;;;;;9.88;7.45;;;;;;;21.90;14.29;100048.03;6116751;23;20021;-84
2023/02/23 08:33:25;;;;;;;;;;;;;;;;;;;;;
2023/02/23 08:41:08;;;;;;;7.70;6.07;;;;;;;22.00;14.08;99970.72;6014042;23;20038;-84
2023/02/23 08:44:11;;;;;;;10.98;7.20;;;;;;;22.19;13.89;99955.53;5965362;23;20099;-87
2023/02/23 08:47:23;;;;;;;10.43;6.65;;;;;;;23.17;13.61;100043.78;6152589;23;20037;-84
2023/02/23 08:50:31;;;;;;;9.18;6.13;;;;;;;22.63;13.56;99979.66;6146994;23;20013;-83
2023/02/23 08:55:10;;;;;;;8.93;6.60;;;;;;;23.09;13.36;100024.78;6052543;23;20098;-87
2023/02/23 08:58:06;;;;;;;8.20;7.20;;;;;;;22.35;13.16;99984.69;6131775;23;20079;-83
2023/02/23 09:01:01;;;;;;;10.60;6.28;;;;;;;23.08;13.54;100048.78;6107341;23;20022;-85
2023/02/23 09:03:34;;;;;;;8.73;6.43;;;;;;;24.06;13.08;100051.91;6074645;23;20034;-84
2023/02/23 09:06:14;;;;;;;12.20;6.75;;;;;;;24.03;13.16;99970.59;6137537;23;20014;-85
2023/02/23 09:08:40;;;;;;;9.77;7.05;;;;;;;24.18;12.45;100050.28;6131714;23;20017;-84
2023/02/23 09:11:25;;;;;;;8.63;6.82;;;;;;;23.88;12.74;100014.88;6113121;23;20426;-85
2023/02/23 09:13:51;;;;;;;9.07;6.95;;;;;;;24.25;12.68;99971.06;6118295;23;20017;-83
2023/02/23 09:20:12;;;;;;;9.43;6.70;;;;;;;23.75;12.49;99969.59;6102575;23;20477;-85
2023/02/23 09:23:26;;;;;;;;;;;;;;;;;;;;;
2023/02/23 09:26:09;;;;;;;8.23;6.32;;;;;;;25.25;12.44;100012.47;6115485;23;20529;-84
2023/02/23 09:28:42;;;;;;;9.15;7.15;;;;;;;25.79;12.17;100025.75;6115789;23;20029;-86
2023/02/23 09:31:13;;;;;;;8.82;7.43;;;;;;;25.81;11.68;100022.03;6157141;23;20022;-84
2023/02/23 09:46:47;;;;;;;;;;;;;;;;;;;;;
2023/02/23 09:49:49;;;;;;;9.18;7.10;;;;;;;25.15;12.08;99987.41;6068003;23;20149;-87
2023/02/23 09:52:24;;;;;;;11.00;7.25;;;;;;;25.97;12.05;100037.81;6035524;23;20350;-84
2023/02/23 09:55:17;;;;;;;8.38;6.95;;;;;;;26.01;11.63;99982.44;6105346;23;20113;-83
2023/02/23 09:58:22;;;;;;;;;;;;;;;;;;;;;
2023/02/23 10:09:33;;;;;;;8.50;7.00;;;;;;;24.90;11.55;100033.41;6122730;23;20102;-85
2023/02/23 10:12:20;;;;;;;8.48;6.47;;;;;;;24.54;12.01;100034.78;6077835;23;20017;-87
2023/02/23 10:15:19;;;;;;;11.18;7.47;;;;;;;24.60;11.79;100029.09;6105514;23;20018;-82
2023/02/23 10:18:02;;;;;;;10.52;6.55;;;;;;;24.13;11.79;99938.13;6081853;23;20056;-82
2023/02/23 10:21:06;;;;;;;7.60;6.72;;;;;;;24.95;11.95;100013.53;6062563;23;20404;-84
2023/02/23 10:33:39;;;;;;;10.82;6.70;;;;;;;15.68;13.81;100014.03;5896879;24;20037;-84
2023/02/23 10:37:06;;;;;;;9.90;6.43;;;;;;;12.61;14.58;99967.88;5814058;24;20083;-85
2023/02/23 10:40:24;;;;;;;12.10;7.00;;;;;;;10.72;16.06;99913.44;5868606;24;20070;-85
2023/02/23 10:48:30;;;;;;;10.60;6.28;;;;;;;8.17;17.04;100027.19;5863085;24;20098;-88
2023/02/23 10:51:57;;;;;;;;;;;;;;;;;;;;;
2023/02/23 10:55:31;;;;;;;;;;;;;;;;;;;;;
2023/02/23 10:58:26;;;;;;;11.80;6.00;;;;;;;4.77;19.57;100030.19;5950523;23;20132;-87
2023/02/23 11:00:55;;;;;;;10.32;5.32;;;;;;;4.30;19.90;100034.44;6103717;23;20054;-84
2023/02/23 11:03:49;;;;;;;11.70;5.93;;;;;;;3.76;20.22;100057.31;6100416;23;20325;-86
2023/02/23 11:06:39;;;;;;;10.15;5.28;;;;;;;2.66;21.17;99974.03;6141731;23;20033;-85
2023/02/23 11:09:26;;;;;;;8.70;5.00;;;;;;;2.44;21.37;100034.28;6123517;23;20032;-85
2023/02/23 11:12:20;;;;;;;11.70;7.07;;;;;;;1.84;21.66;99977.81;6078589;23;20024;-84
2023/02/23 11:14:56;;;;;;;11.75;6.40;;;;;;;1.97;22.03;100012.41;6078854;23;20116;-86
2023/02/23 11:18:00;;;;;;;9.85;5.70;;;;;;;2.05;21.94;100043.44;6099908;23;20463;-84
2023/02/23 11:20:56;;;;;;;;;;;;;;;;;;;;;
2023/02/23 11:23:47;;;;;;;;;;;;;;;;;;;;;
2023/02/23 11:26:23;;;;;;;10.52;5.13;;;;;;;0.54;23.28;100002.75;6133192;23;20045;-83
2023/02/23 11:29:04;;;;;;;10.50;5.93;;;;;;;0.75;24.47;100053.00;6139096;23;20547;-85
2023/02/23 11:32:04;;;;;;;;;;;;;;;;;;;;;
2023/02/23 11:35:35;;;;;;;8.48;5.05;;;;;;;0.31;24.92;100050.56;6143545;23;20021;-85
2023/02/23 11:42:54;;;;;;;11.00;5.63;;;;;;;-0.36;25.45;100060.00;6046198;23;20385;-87
2023/02/23 11:45:43;;;;;;;10.73;5.40;;;;;;;-1.41;25.61;99941.63;5890124;24;20055;-90
2023/02/23 11:49:39;;;;;;;10.93;5.13;;;;;;;-1.23;26.11;100003.72;5969692;23;20019;-88
2023/02/23 11:52:22;;;;;;;10.85;5.43;;;;;;;-1.90;26.29;99913.25;5989918;23;20003;-89
2023/02/23 12:00:03;;;;;;;10.70;4.38;;;;;;;-1.33;26.43;100056.88;6074683;23;20018;-86
2023/02/23 12:02:49;;;;;;;;;;;;;;;-1.63;26.18;100052.16;6097064;23;20022;-84
2023/02/23 12:05:21;;;;;;;8.32;4.18;;;;;;;-1.96;26.95;100030.31;6085832;23;19988;-86
2023/02/23 12:08:16;;;;;;;9.83;4.77;;;;;;;-1.86;27.22;100057.13;6101759;23;20410;-86
2023/02/23 12:10:54;;;;;;;11.65;4.85;;;;;;;-1.75;27.48;100053.34;6100375;23;20021;-85
2023/02/23 12:13:37;;;;;;;11.30;4.88;;;;;;;-2.21;27.58;100001.16;6100795;23;20108;-87
2023/02/23 12:16:22;;;;;;;10.48;5.38;;;;;;;-1.83;27.76;100058.13;6099296;23;20026;-85
2023/02/23 12:19:21;;;;;;;9.55;4.80;;;;;;;-1.91;27.75;100059.47;6100992;23;20018;-85
2023/02/23 12:22:09;;;;;;;11.88;5.13;;;;;;;-1.93;27.98;100060.19;6105100;23;20025;-84
2023/02/23 12:24:53;;;;;;;14.95;5.57;;;;;;;-2.78;28.56;99922.94;6110307;23;20018;-83
2023/02/23 12:27:49;;;;;;;12.25;5.47;;;;;;;-2.09;28.30;100053.50;6077286;23;20018;-88
2023/02/23 12:30:33;;;;;;;8.70;4.43;;;;;;;-2.30;28.61;100054.25;6071836;23;20022;-81
2023/02/23 12:33:09;;;;;;;10.35;4.43;;;;;;;-2.40;28.65;100058.03;6098238;23;20018;-86
2023/02/23 12:37:26;;;;;;;15.65;5.38;;;;;;;-2.94;29.35;99999.41;6050714;23;20049;-86
2023/02/23 12:40:09;;;;;;;9.45;4.65;;;;;;;-3.25;29.10;99957.19;6009353;23;20034;-80
2023/02/23 12:42:57;;;;;;;11.13;5.53;;;;;;;-2.89;29.52;100019.22;6013216;23;20022;-82
2023/02/23 12:46:13;;;;;;;10.60;4.78;;;;;;;-2.59;29.41;100052.06;6043024;23;20040;-85
2023/02/23 12:49:02;;;;;;;10.75;4.55;;;;;;;-2.66;29.38;100049.16;5961018;23;20045;-86
2023/02/23 12:52:39;;;;;;;14.63;5.45;;;;;;;-2.76;29.72;100053.78;6039721;23;20053;-86
2023/02/23 12:55:56;;;;;;;10.10;5.07;;;;;;;-2.89;30.01;100054.88;6047836;23;20046;-86
2023/02/23 13:03:15;;;;;;;12.98;4.80;;;;;;;-3.01;30.29;100066.13;6006612;23;20023;-81
2023/02/23 13:06:35;;;;;;;15.05;5.13;;;;;;;-3.51;30.71;99994.91;6076499;23;20050;-83
2023/02/23 13:13:33;;;;;;;9.70;4.25;;;;;;;-3.36;30.62;100066.09;6006639;23;20067;-86
2023/02/23 13:16:59;;;;;;;9.85;4.30;;;;;;;-3.37;30.81;100067.75;6030498;23;20023;-81
2023/02/23 13:20:27;;;;;;;9.48;4.72;;;;;;;-3.69;30.79;100022.81;6007229;23;20418;-84
2023/02/23 13:23:30;;;;;;;8.13;4.10;;;;;;;-3.63;31.25;100029.09;5963659;23;20084;-84
2023/02/23 13:26:40;;;;;;;9.32;3.70;;;;;;;-3.60;30.86;100068.22;6005920;23;20030;-82
2023/02/23 13:29:42;;;;;;;9.50;4.57;;;;;;;-4.44;31.37;99924.03;6015940;23;20022;-82
2023/02/23 13:33:06;;;;;;;8.93;3.88;;;;;;;-4.20;31.64;99961.69;6043825;23;20030;-82
2023/02/23 14:07:32;;;;;;;8.93;4.00;;;;;;;-4.46;32.17;99999.28;5851534;24;20030;-82
2023/02/23 14:10:45;;;;;;;8.77;4.20;;;;;;;-4.02;32.42;100074.53;5853822;24;20076;-86
2023/02/23 14:13:21;;;;;;;8.25;3.90;;;;;;;-4.31;32.40;100040.78;5872424;24;20083;-83
2023/02/23 14:16:35;;;;;;;7.35;4.00;;;;;;;-4.27;32.33;100073.19;5913059;24;20032;-82
2023/02/23 14:19:39;;;;;;;11.40;4.43;;;;;;;-4.66;32.96;100021.91;5923267;24;20040;-85
2023/02/23 14:22:23;;;;;;;12.68;4.80;;;;;;;-4.60;32.92;100040.06;5924693;24;20048;-83
2023/02/23 14:25:31;;;;;;;10.85;4.95;;;;;;;-4.66;33.31;100027.00;5992161;23;20141;-82
2023/02/23 14:28:05;;;;;;;11.13;4.50;;;;;;;-4.82;33.28;100006.63;6014723;23;20345;-81
2023/02/23 14:30:49;;;;;;;8.93;4.70;;;;;;;-4.75;34.07;100018.88;6068884;23;20022;-82
2023/02/23 14:33:40;;;;;;;10.63;4.40;;;;;;;-4.50;33.57;100061.75;6048687;23;20014;-83
2023/02/23 14:36:21;;;;;;;13.50;5.00;;;;;;;-4.52;33.84;100060.78;6047304;23;20026;-85
2023/02/23 14:39:00;;;;;;;10.38;4.60;;;;;;;-4.56;34.33;100057.22;6072470;23;20019;-83
2023/02/23 14:42:05;;;;;;;16.80;4.88;;;;;;;-4.60;34.59;100050.22;6052414;23;20097;-83
2023/02/23 14:45:18;;;;;;;11.73;4.82;;;;;;;-5.39;34.66;99936.63;6074393;23;20022;-85
2023/02/23 14:48:35;;;;;;;15.65;4.90;;;;;;;-5.64;34.76;99919.13;6058284;23;20023;-85
2023/02/23 14:51:43;;;;;;;11.80;5.53;;;;;;;-5.36;35.18;99979.03;6023197;23;20465;-86
2023/02/23 14:54:42;;;;;;;10.90;5.22;;;;;;;-4.85;35.23;100051.38;6076707;23;20027;-86
2023/02/23 14:57:33;;;;;;;10.88;4.93;;;;;;;-5.14;35.54;100026.84;6021152;23;20022;-86
2023/02/23 15:00:08;;;;;;;10.95;4.93;;;;;;;-5.37;35.26;99995.03;6070478;23;20015;-85
2023/02/23 15:02:47;;;;;;;;;;;;;;;-5.09;35.78;100050.84;6087009;23;20085;-85
2023/02/23 15:06:04;;;;;;;11.70;4.93;;;;;;;-5.93;36.15;99915.75;6019400;23;20323;-84
2023/02/23 15:08:40;;;;;;;10.88;5.10;;;;;;;-5.38;35.71;100016.13;6065828;23;20460;-84
2023/02/23 15:11:36;;;;;;;9.25;4.07;;;;;;;-5.85;35.82;99937.38;6065569;23;20484;-84
2023/02/23 15:14:42;;;;;;;8.93;4.80;;;;;;;-5.42;35.94;100016.75;6064603;23;20037;-84
2023/02/23 15:17:29;;;;;;;13.82;4.90;;;;;;;-5.60;36.00;100007.25;6042691;23;20015;-84
2023/02/23 15:20:47;;;;;;;12.88;4.95;;;;;;;-6.09;36.39;99942.75;6058151;23;20022;-85
2023/02/23 15:24:01;;;;;;;;;;;;;;;-5.41;36.15;100051.50;6020676;23;20457;-86
2023/02/23 15:26:36;;;;;;;9.45;4.63;;;;;;;-6.33;36.51;99905.81;6063487;23;20005;-82
2023/02/23 15:33:29;;;;;;;11.13;4.28;;;;;;;-6.40;36.80;99904.56;6005219;23;20370;-82
2023/02/23 15:36:33;;;;;;;10.82;4.93;;;;;;;-5.61;36.75;100049.50;6038802;23;20529;-84
2023/02/23 15:39:55;;;;;;;13.43;4.90;;;;;;;-5.86;37.01;100026.00;6064499;23;20022;-85
2023/02/23 15:42:38;;;;;;;12.55;4.68;;;;;;;-6.05;36.59;100020.69;5982534;23;20577;-83
2023/02/23 15:45:18;;;;;;;;;;;;;;;-5.83;36.97;100047.31;5991125;23;20229;-84
2023/02/23 15:48:32;;;;;;;10.65;4.78;;;;;;;-6.53;37.06;99951.06;6058793;23;19913;-84
2023/02/23 15:50:58;;;;;;;10.95;4.25;;;;;;;-6.38;37.26;99984.94;6071250;23;20038;-82
2023/02/23 15:53:42;;;;;;;9.20;4.35;;;;;;;-6.08;37.53;100045.88;6071496;23;20019;-84
2023/02/23 15:56:31;;;;;;;10.47;4.37;;;;;;;-6.26;37.63;100025.34;6066645;23;20026;-83
2023/02/23 15:59:33;;;;;;;9.05;4.05;;;;;;;-6.06;37.57;100058.63;6067041;23;20101;-83
2023/02/23 16:02:13;;;;;;;8.23;4.15;;;;;;;-6.05;38.28;100063.78;6028881;23;20382;-83
2023/02/23 16:04:51;;;;;;;8.75;3.75;;;;;;;-6.26;37.72;100016.84;6070930;23;20018;-84
2023/02/23 16:07:47;;;;;;;;;;;;;;;;;;;;;
2023/02/23 16:11:11;;;;;;;9.30;4.50;;;;;;;-6.63;37.76;99962.28;6100297;23;20022;-83
2023/02/23 16:13:49;;;;;;;8.48;3.83;;;;;;;-6.66;37.78;99957.88;6051228;23;20110;-85
2023/02/23 16:16:24;;;;;;;7.95;4.13;;;;;;;-6.30;37.81;100020.00;6076136;23;20022;-81
2023/02/23 16:19:04;;;;;;;11.40;4.55;;;;;;;-6.59;38.04;99974.31;6074038;23;20023;-80
2023/02/23 16:25:17;;;;;;;10.35;4.38;;;;;;;-6.11;38.51;100035.56;6051103;23;20542;-84
2023/02/23 16:27:59;;;;;;;;;;;;;;;-6.12;37.86;100033.81;6098919;23;20025;-81
2023/02/23 16:30:50;;;;;;;10.13;4.90;;;;;;;-6.33;38.02;100000.41;6097713;23;19913;-82
2023/02/23 16:34:07;;;;;;;7.72;3.97;;;;;;;-6.15;38.06;100026.00;6050905;23;20069;-85
2023/02/23 16:37:02;;;;;;;10.18;5.05;;;;;;;-6.46;38.04;99967.50;6024095;23;20745;-84
2023/02/23 16:39:55;;;;;;;16.10;5.40;;;;;;;-6.12;38.52;100018.59;6074634;23;20022;-80
2023/02/23 16:43:43;;;;;;;9.27;4.10;;;;;;;-6.05;38.64;100020.69;5992561;23;20011;-86
2023/02/23 16:47:24;;;;;;;9.73;4.32;;;;;;;-6.02;38.32;100011.53;5930309;24;20687;-80
2023/02/23 16:49:50;;;;;;;9.88;4.60;;;;;;;-6.07;38.61;100013.81;5942484;24;20407;-84
2023/02/23 16:52:24;;;;;;;12.38;4.50;;;;;;;-6.44;38.71;99933.03;5979609;23;20039;-85
2023/02/23 16:54:51;;;;;;;10.38;4.45;;;;;;;-6.81;38.64;99865.81;5981706;23;20079;-84
2023/02/23 16:57:24;;;;;;;11.98;4.65;;;;;;;-6.84;39.04;99858.03;6006914;23;20028;-85
2023/02/23 16:59:54;;;;;;;9.95;4.82;;;;;;;-6.90;38.49;99847.50;5984484;23;20019;-84
2023/02/23 17:02:23;;;;;;;12.10;5.07;;;;;;;-5.88;39.44;100014.88;5959958;23;20079;-84
2023/02/23 17:04:50;;;;;;;11.02;5.47;;;;;;;-6.40;39.23;99909.66;5982377;23;20015;-84
2023/02/23 17:07:20;;;;;;;8.63;4.40;;;;;;;-6.05;39.32;99964.09;5983032;23;20475;-83
2023/02/23 17:09:58;;;;;;;15.27;5.75;;;;;;;-5.71;39.53;100010.84;5984855;23;20049;-85
2023/02/23 17:12:29;;;;;;;10.00;4.70;;;;;;;-5.75;39.49;100014.84;6009408;23;20029;-84
2023/02/23 17:14:55;;;;;;;11.38;5.55;;;;;;;-6.25;39.37;99924.88;6011606;23;20019;-84
2023/02/23 17:17:21;;;;;;;14.02;5.90;;;;;;;-6.57;39.58;99876.53;6041124;23;20014;-83
2023/02/23 17:20:14;;;;;;;21.23;5.25;;;;;;;-6.20;39.82;99933.63;6069369;23;20467;-83
2023/02/23 17:23:11;;;;;;;12.20;5.45;;;;;;;-6.64;39.69;99848.22;6071901;23;20015;-84
2023/02/23 17:26:12;;;;;;;14.93;5.82;;;;;;;-5.61;40.21;100002.97;6047518;23;20023;-83
2023/02/23 17:29:25;;;;;;;11.60;5.72;;;;;;;-6.46;40.06;99864.53;6086316;23;20030;-82
2023/02/23 17:31:52;;;;;;;16.60;6.05;;;;;;;-5.60;39.88;100025.91;6076389;23;20029;-83
2023/02/23 17:34:55;;;;;;;15.77;6.22;;;;;;;-5.59;39.92;100014.09;6080549;23;20018;-82
2023/02/23 17:37:39;;;;;;;12.45;5.60;;;;;;;-5.85;40.45;99971.97;6059829;23;20018;-85
2023/02/23 17:40:08;;;;;;;17.52;6.03;;;;;;;-5.84;40.47;99979.66;6071360;23;20018;-82
2023/02/23 17:42:38;;;;;;;13.50;5.95;;;;;;;-5.91;40.46;99954.75;6046900;23;20025;-84
2023/02/23 17:45:14;;;;;;;14.60;5.85;;;;;;;-6.58;40.52;99849.47;6068150;23;20026;-86
2023/02/23 17:48:35;;;;;;;16.98;6.22;;;;;;;-5.56;40.46;100010.88;6043597;23;20035;-82
2023/02/23 17:51:36;;;;;;;12.48;5.70;;;;;;;-6.36;40.64;99882.03;6094410;23;20014;-85